Time;durP1;ratioP1;P1;durP2;ratioP2;P2;SDS_P1;SDS_P2;PMS_P1;PMS_P2;Temp;Humidity;BMP_temperature;BMP_pressure;BME280_temperature;BME280_humidity;BME280_pressure;Samples;Min_cycle;Max_cycle;Signal;HPM_P1;HPM_P2
2023/12/31 00:02:07;;;;;;;1999.90;999.90;;;;;;;;;;4967352;28;20054;-85
2023/12/31 00:04:35;;;;;;;1999.90;999.90;;;;;;;;;;4973223;28;20053;-86
2023/12/31 00:07:02;;;;;;;1999.90;999.90;;;;;;;;;;4952456;28;20062;-86
2023/12/31 00:09:28;;;;;;;1999.90;999.90;;;;;;;;;;4962488;28;20514;-85
2023/12/31 00:11:55;;;;;;;1999.90;999.90;;;;;;;;;;4960326;28;20051;-87
2023/12/31 00:14:22;;;;;;;1999.90;999.90;;;;;;;;;;4969472;28;20057;-85
2023/12/31 00:16:50;;;;;;;1999.90;999.90;;;;;;;;;;4963558;28;20077;-85
2023/12/31 00:19:17;;;;;;;1999.90;999.90;;;;;;;;;;4964156;28;20477;-85
2023/12/31 00:21:45;;;;;;;1999.90;999.90;;;;;;;;;;4970669;28;20113;-87
2023/12/31 00:24:12;;;;;;;1999.90;999.90;;;;;;;;;;4970597;28;20472;-84
2023/12/31 00:26:38;;;;;;;1999.90;999.90;;;;;;;;;;4962669;28;20055;-85
2023/12/31 00:29:05;;;;;;;1999.90;999.90;;;;;;;;;;4969621;28;20061;-86
2023/12/31 00:31:31;;;;;;;1999.90;999.90;;;;;;;;;;4967285;28;20047;-85
2023/12/31 00:33:58;;;;;;;1999.90;999.90;;;;;;;;;;4969112;28;20051;-85
2023/12/31 00:36:25;;;;;;;1999.90;999.90;;;;;;;;;;4964373;28;20473;-85
2023/12/31 00:38:55;;;;;;;1999.90;999.90;;;;;;;;;;4960260;28;20046;-84
2023/12/31 00:41:22;;;;;;;1999.90;999.90;;;;;;;;;;4964847;28;20151;-85
2023/12/31 00:43:48;;;;;;;1999.90;999.90;;;;;;;;;;4969325;28;20130;-85
2023/12/31 00:46:15;;;;;;;1999.90;999.90;;;;;;;;;;4960677;28;20062;-84
2023/12/31 00:48:41;;;;;;;1999.90;999.90;;;;;;;;;;4964914;28;20050;-84
2023/12/31 00:51:08;;;;;;;1999.90;999.90;;;;;;;;;;4976562;28;20139;-84
2023/12/31 00:53:35;;;;;;;1999.90;999.90;;;;;;;;;;4976488;28;20059;-84
2023/12/31 00:56:04;;;;;;;1999.90;999.90;;;;;;;;;;4968902;28;20058;-84
2023/12/31 00:58:30;;;;;;;1999.90;999.90;;;;;;;;;;4975759;28;20043;-84
2023/12/31 01:00:57;;;;;;;1999.90;999.90;;;;;;;;;;4971166;28;20509;-84
2023/12/31 01:03:23;;;;;;;1999.90;999.90;;;;;;;;;;4963878;28;20075;-84
2023/12/31 01:05:50;;;;;;;1999.90;999.90;;;;;;;;;;4964526;28;20513;-85
2023/12/31 01:08:16;;;;;;;1999.90;999.90;;;;;;;;;;4966585;28;20054;-84
2023/12/31 01:10:43;;;;;;;1999.90;999.90;;;;;;;;;;4964168;28;20046;-84
2023/12/31 01:13:11;;;;;;;1999.90;999.90;;;;;;;;;;4966243;28;20062;-83
2023/12/31 01:15:37;;;;;;;1999.90;999.90;;;;;;;;;;4966489;28;20053;-84
2023/12/31 01:18:04;;;;;;;1999.90;999.90;;;;;;;;;;4963287;28;20057;-88
2023/12/31 01:20:46;;;;;;;1999.90;999.90;;;;;;;;;;4963845;28;20062;-84
2023/12/31 01:23:14;;;;;;;1999.90;999.90;;;;;;;;;;4972193;28;20051;-84
2023/12/31 01:25:41;;;;;;;1999.90;999.90;;;;;;;;;;4970126;28;20049;-88
2023/12/31 01:28:07;;;;;;;1999.90;999.90;;;;;;;;;;4966492;28;20502;-85
2023/12/31 01:30:35;;;;;;;1999.90;999.90;;;;;;;;;;4965341;28;20055;-84
2023/12/31 01:33:02;;;;;;;1999.90;999.90;;;;;;;;;;4970103;28;20158;-85
2023/12/31 01:35:28;;;;;;;1999.90;999.90;;;;;;;;;;4972370;28;20055;-85
2023/12/31 01:37:55;;;;;;;1999.90;999.90;;;;;;;;;;4963607;28;20046;-84
2023/12/31 01:40:21;;;;;;;1999.90;999.90;;;;;;;;;;4974257;28;20055;-84
2023/12/31 01:42:48;;;;;;;1999.90;999.90;;;;;;;;;;4969213;28;20053;-85
2023/12/31 01:45:15;;;;;;;1999.90;999.90;;;;;;;;;;4968227;28;20051;-84
2023/12/31 01:47:44;;;;;;;1999.90;999.90;;;;;;;;;;4964175;28;20051;-84
2023/12/31 01:50:14;;;;;;;1999.90;999.90;;;;;;;;;;4968738;28;20055;-84
2023/12/31 01:52:40;;;;;;;1999.90;999.90;;;;;;;;;;4962311;28;20047;-83
2023/12/31 01:55:08;;;;;;;1999.90;999.90;;;;;;;;;;4964919;28;20043;-83
2023/12/31 01:57:37;;;;;;;1999.90;999.90;;;;;;;;;;4970725;28;20387;-84
2023/12/31 02:00:06;;;;;;;1999.90;999.90;;;;;;;;;;4957853;28;20143;-88
2023/12/31 02:02:33;;;;;;;1999.90;999.90;;;;;;;;;;4964405;28;20051;-84
2023/12/31 02:05:01;;;;;;;1999.90;999.90;;;;;;;;;;4964136;28;20054;-84
2023/12/31 02:07:26;;;;;;;1999.90;999.90;;;;;;;;;;4964139;28;20051;-85
2023/12/31 02:09:53;;;;;;;1999.90;999.90;;;;;;;;;;4962005;28;20051;-84
2023/12/31 02:12:20;;;;;;;1999.90;999.90;;;;;;;;;;4966687;28;20071;-84
2023/12/31 02:14:46;;;;;;;1999.90;999.90;;;;;;;;;;4967949;28;20039;-84
2023/12/31 02:17:13;;;;;;;1999.90;999.90;;;;;;;;;;4967088;28;20059;-83
2023/12/31 02:19:39;;;;;;;1999.90;999.90;;;;;;;;;;4971047;28;20046;-84
2023/12/31 02:22:09;;;;;;;1999.90;999.90;;;;;;;;;;4972801;28;20082;-84
2023/12/31 02:24:42;;;;;;;1999.90;999.90;;;;;;;;;;4963189;28;20061;-84
2023/12/31 02:27:11;;;;;;;1999.90;999.90;;;;;;;;;;4963511;28;20043;-84
2023/12/31 02:29:37;;;;;;;1999.90;999.90;;;;;;;;;;4965941;28;20047;-83
2023/12/31 02:32:04;;;;;;;1999.90;999.90;;;;;;;;;;4959115;28;20735;-84
2023/12/31 02:34:31;;;;;;;1999.90;999.90;;;;;;;;;;4946848;28;20046;-85
2023/12/31 02:36:58;;;;;;;1999.90;999.90;;;;;;;;;;4968806;28;20524;-85
2023/12/31 02:39:24;;;;;;;1999.90;999.90;;;;;;;;;;4962801;28;20130;-85
2023/12/31 02:41:51;;;;;;;1999.90;999.90;;;;;;;;;;4962803;28;20057;-84
2023/12/31 02:44:19;;;;;;;1999.90;999.90;;;;;;;;;;4958725;28;20046;-91
2023/12/31 02:46:46;;;;;;;1999.90;999.90;;;;;;;;;;4969986;28;20112;-84
2023/12/31 02:49:12;;;;;;;1999.90;999.90;;;;;;;;;;4966602;28;20054;-85
2023/12/31 02:51:39;;;;;;;1999.90;999.90;;;;;;;;;;4970027;28;20053;-86
2023/12/31 02:54:06;;;;;;;1999.90;999.90;;;;;;;;;;4961965;28;20067;-84
2023/12/31 02:56:39;;;;;;;1999.90;999.90;;;;;;;;;;4976395;28;20054;-84
2023/12/31 02:59:05;;;;;;;1999.90;999.90;;;;;;;;;;4954487;29;20043;-84
2023/12/31 03:01:33;;;;;;;1999.90;999.90;;;;;;;;;;4966969;28;20051;-84
2023/12/31 03:04:00;;;;;;;1999.90;999.90;;;;;;;;;;4970884;28;20114;-85
2023/12/31 03:06:28;;;;;;;1999.90;999.90;;;;;;;;;;4956982;28;20051;-85
2023/12/31 03:08:58;;;;;;;1999.90;999.90;;;;;;;;;;4958260;28;20055;-85
2023/12/31 03:11:25;;;;;;;1999.90;999.90;;;;;;;;;;4965755;28;20055;-87
2023/12/31 03:13:51;;;;;;;1999.90;999.90;;;;;;;;;;4967661;28;20089;-84
2023/12/31 03:16:18;;;;;;;1999.90;999.90;;;;;;;;;;4965277;28;20053;-84
2023/12/31 03:18:46;;;;;;;1999.90;999.90;;;;;;;;;;4962876;28;20342;-84
2023/12/31 03:21:25;;;;;;;1999.90;999.90;;;;;;;;;;4964234;28;20059;-84
2023/12/31 03:23:51;;;;;;;1999.90;999.90;;;;;;;;;;4967170;28;20051;-84
2023/12/31 03:26:18;;;;;;;1999.90;999.90;;;;;;;;;;4966827;28;20130;-87
2023/12/31 03:28:46;;;;;;;1999.90;999.90;;;;;;;;;;4963590;28;20134;-89
2023/12/31 03:31:12;;;;;;;1999.90;999.90;;;;;;;;;;4966273;28;20059;-84
2023/12/31 03:33:39;;;;;;;1999.90;999.90;;;;;;;;;;4973415;28;20055;-84
2023/12/31 03:36:07;;;;;;;1999.90;999.90;;;;;;;;;;4973694;28;20050;-86
2023/12/31 03:38:34;;;;;;;1999.90;999.90;;;;;;;;;;4961712;28;20051;-84
2023/12/31 03:40:59;;;;;;;1999.90;999.90;;;;;;;;;;4972945;28;20061;-84
2023/12/31 03:43:26;;;;;;;1999.90;999.90;;;;;;;;;;4975220;28;20114;-84
2023/12/31 03:45:52;;;;;;;1999.90;999.90;;;;;;;;;;4979147;28;20046;-84
2023/12/31 03:48:19;;;;;;;1999.90;999.90;;;;;;;;;;4978249;28;20039;-84
2023/12/31 03:50:46;;;;;;;1999.90;999.90;;;;;;;;;;4973733;28;20051;-84
2023/12/31 03:53:14;;;;;;;1999.90;999.90;;;;;;;;;;4968638;28;20130;-84
2023/12/31 03:55:40;;;;;;;1999.90;999.90;;;;;;;;;;4976593;28;20042;-85
2023/12/31 03:58:07;;;;;;;1999.90;999.90;;;;;;;;;;4980930;28;20089;-84
2023/12/31 04:00:34;;;;;;;1999.90;999.90;;;;;;;;;;4983183;28;20053;-85
2023/12/31 04:03:00;;;;;;;1999.90;999.90;;;;;;;;;;4977659;28;20047;-85
2023/12/31 04:05:27;;;;;;;1999.90;999.90;;;;;;;;;;4971407;28;20042;-84
2023/12/31 04:07:53;;;;;;;1999.90;999.90;;;;;;;;;;4967582;28;20516;-83
2023/12/31 04:10:21;;;;;;;1999.90;999.90;;;;;;;;;;4971317;28;20059;-84
2023/12/31 04:12:48;;;;;;;1999.90;999.90;;;;;;;;;;4977359;28;20481;-85
2023/12/31 04:15:15;;;;;;;1999.90;999.90;;;;;;;;;;4969661;28;20158;-85
2023/12/31 04:17:42;;;;;;;1999.90;999.90;;;;;;;;;;4977777;28;20051;-84
2023/12/31 04:20:10;;;;;;;1999.90;999.90;;;;;;;;;;4974540;28;20489;-84
2023/12/31 04:22:36;;;;;;;1999.90;999.90;;;;;;;;;;4969557;28;20053;-84
2023/12/31 04:25:03;;;;;;;1999.90;999.90;;;;;;;;;;4977421;28;20550;-84
2023/12/31 04:27:31;;;;;;;1999.90;999.90;;;;;;;;;;4974889;28;20051;-84
2023/12/31 04:29:58;;;;;;;1999.90;999.90;;;;;;;;;;4973176;28;20489;-85
2023/12/31 04:32:25;;;;;;;1999.90;999.90;;;;;;;;;;4977504;28;20411;-85
2023/12/31 04:34:52;;;;;;;1999.90;999.90;;;;;;;;;;4972080;28;20054;-86
2023/12/31 04:37:19;;;;;;;1999.90;999.90;;;;;;;;;;4963053;28;20082;-85
2023/12/31 04:39:45;;;;;;;1999.90;999.90;;;;;;;;;;4976277;28;20549;-85
2023/12/31 04:42:12;;;;;;;1999.90;999.90;;;;;;;;;;4977342;28;20130;-85
2023/12/31 04:44:41;;;;;;;1999.90;999.90;;;;;;;;;;4968896;28;20050;-86
2023/12/31 04:47:08;;;;;;;1999.90;999.90;;;;;;;;;;4974607;28;20057;-89
2023/12/31 04:49:34;;;;;;;1999.90;999.90;;;;;;;;;;4976089;28;20462;-84
2023/12/31 04:52:08;;;;;;;1999.90;999.90;;;;;;;;;;4968670;28;20050;-84
2023/12/31 04:54:35;;;;;;;1999.90;999.90;;;;;;;;;;4970231;28;20081;-84
2023/12/31 04:57:02;;;;;;;1999.90;999.90;;;;;;;;;;4969419;28;20046;-84
2023/12/31 04:59:28;;;;;;;1999.90;999.90;;;;;;;;;;4959891;28;20050;-85
2023/12/31 05:01:56;;;;;;;1999.90;999.90;;;;;;;;;;4972856;28;20061;-84
2023/12/31 05:04:23;;;;;;;1999.90;999.90;;;;;;;;;;4964391;28;20133;-84
2023/12/31 05:06:49;;;;;;;1999.90;999.90;;;;;;;;;;4968551;28;20051;-84
2023/12/31 05:09:16;;;;;;;1999.90;999.90;;;;;;;;;;4967309;28;20057;-84
2023/12/31 05:11:42;;;;;;;1999.90;999.90;;;;;;;;;;4959194;28;20131;-85
2023/12/31 05:14:09;;;;;;;1999.90;999.90;;;;;;;;;;4958103;28;20053;-85
2023/12/31 05:16:35;;;;;;;1999.90;999.90;;;;;;;;;;4970544;28;20051;-86
2023/12/31 05:19:03;;;;;;;1999.90;999.90;;;;;;;;;;4967088;28;20049;-85
2023/12/31 05:21:35;;;;;;;1999.90;999.90;;;;;;;;;;4961309;28;20059;-84
2023/12/31 05:24:02;;;;;;;1999.90;999.90;;;;;;;;;;4970028;28;20503;-85
2023/12/31 05:26:28;;;;;;;1999.90;999.90;;;;;;;;;;4968163;28;20047;-85
2023/12/31 05:28:55;;;;;;;1999.90;999.90;;;;;;;;;;4973986;28;20129;-85
2023/12/31 05:31:22;;;;;;;1999.90;999.90;;;;;;;;;;4964525;28;20055;-85
2023/12/31 05:33:48;;;;;;;1999.90;999.90;;;;;;;;;;4970620;28;20489;-84
2023/12/31 05:36:16;;;;;;;1999.90;999.90;;;;;;;;;;4967876;28;20502;-85
2023/12/31 05:38:43;;;;;;;1999.90;999.90;;;;;;;;;;4971422;28;20077;-84
2023/12/31 05:41:09;;;;;;;1999.90;999.90;;;;;;;;;;4962979;28;20130;-84
2023/12/31 05:43:36;;;;;;;1999.90;999.90;;;;;;;;;;4965653;28;20417;-85
2023/12/31 05:46:02;;;;;;;1999.90;999.90;;;;;;;;;;4960366;28;20054;-85
2023/12/31 05:48:29;;;;;;;1999.90;999.90;;;;;;;;;;4962631;28;20050;-84
2023/12/31 05:50:55;;;;;;;1999.90;999.90;;;;;;;;;;4959339;28;20050;-85
2023/12/31 05:53:23;;;;;;;1999.90;999.90;;;;;;;;;;4973867;28;20058;-84
2023/12/31 05:55:51;;;;;;;1999.90;999.90;;;;;;;;;;4968453;28;20121;-84
2023/12/31 05:58:17;;;;;;;1999.90;999.90;;;;;;;;;;4956393;29;20464;-84
2023/12/31 06:00:44;;;;;;;1999.90;999.90;;;;;;;;;;4970869;28;20053;-84
2023/12/31 06:03:10;;;;;;;1999.90;999.90;;;;;;;;;;4969804;28;20047;-86
2023/12/31 06:05:37;;;;;;;1999.90;999.90;;;;;;;;;;4966079;28;20425;-84
2023/12/31 06:08:04;;;;;;;1999.90;999.90;;;;;;;;;;4967686;28;20051;-85
2023/12/31 06:10:32;;;;;;;1999.90;999.90;;;;;;;;;;4962815;28;20493;-84
2023/12/31 06:12:58;;;;;;;1999.90;999.90;;;;;;;;;;4967913;28;20043;-84
2023/12/31 06:15:25;;;;;;;1999.90;999.90;;;;;;;;;;4959128;28;20055;-84
2023/12/31 06:17:51;;;;;;;1999.90;999.90;;;;;;;;;;4966682;28;20058;-84
2023/12/31 06:20:24;;;;;;;1999.90;999.90;;;;;;;;;;4974014;28;20066;-85
2023/12/31 06:22:50;;;;;;;1999.90;999.90;;;;;;;;;;4969509;28;20053;-84
2023/12/31 06:25:17;;;;;;;1999.90;999.90;;;;;;;;;;4960235;28;20054;-84
2023/12/31 06:27:44;;;;;;;1999.90;999.90;;;;;;;;;;4965111;28;20049;-85
2023/12/31 06:30:12;;;;;;;1999.90;999.90;;;;;;;;;;4974079;28;20051;-84
2023/12/31 06:32:38;;;;;;;1999.90;999.90;;;;;;;;;;4975067;28;20064;-85
2023/12/31 06:35:06;;;;;;;1999.90;999.90;;;;;;;;;;4968663;28;20047;-84
2023/12/31 06:37:32;;;;;;;1999.90;999.90;;;;;;;;;;4959169;28;20412;-84
2023/12/31 06:39:59;;;;;;;1999.90;999.90;;;;;;;;;;4961678;28;20074;-84
2023/12/31 06:42:25;;;;;;;1999.90;999.90;;;;;;;;;;4968798;28;20046;-88
2023/12/31 06:44:53;;;;;;;1999.90;999.90;;;;;;;;;;4963576;28;20047;-84
2023/12/31 06:47:20;;;;;;;1999.90;999.90;;;;;;;;;;4971197;28;20046;-84
2023/12/31 06:49:47;;;;;;;1999.90;999.90;;;;;;;;;;4963370;28;20047;-84
2023/12/31 06:52:13;;;;;;;1999.90;999.90;;;;;;;;;;4969215;28;20140;-84
2023/12/31 06:54:40;;;;;;;1999.90;999.90;;;;;;;;;;4975118;28;20051;-84
2023/12/31 06:57:07;;;;;;;1999.90;999.90;;;;;;;;;;4963218;28;20493;-84
2023/12/31 06:59:34;;;;;;;1999.90;999.90;;;;;;;;;;4965441;28;20109;-84
2023/12/31 07:02:02;;;;;;;1999.90;999.90;;;;;;;;;;4973692;28;20572;-85
2023/12/31 07:04:29;;;;;;;1999.90;999.90;;;;;;;;;;4959438;28;20047;-84
2023/12/31 07:06:55;;;;;;;1999.90;999.90;;;;;;;;;;4967062;28;20133;-84
2023/12/31 07:09:22;;;;;;;1999.90;999.90;;;;;;;;;;4955743;29;20055;-84
2023/12/31 07:11:48;;;;;;;1999.90;999.90;;;;;;;;;;4960323;28;20118;-84
2023/12/31 07:14:15;;;;;;;1999.90;999.90;;;;;;;;;;4963855;28;20114;-84
2023/12/31 07:16:41;;;;;;;1999.90;999.90;;;;;;;;;;4974971;28;20059;-87
2023/12/31 07:19:09;;;;;;;1999.90;999.90;;;;;;;;;;4971091;28;20065;-84
2023/12/31 07:21:36;;;;;;;1999.90;999.90;;;;;;;;;;4974499;28;20063;-86
2023/12/31 07:24:03;;;;;;;1999.90;999.90;;;;;;;;;;4971651;28;20422;-85
2023/12/31 07:26:30;;;;;;;1999.90;999.90;;;;;;;;;;4973969;28;20075;-85
2023/12/31 07:28:57;;;;;;;1999.90;999.90;;;;;;;;;;4974563;28;20054;-88
2023/12/31 07:31:23;;;;;;;1999.90;999.90;;;;;;;;;;4961346;28;20086;-85
2023/12/31 07:33:50;;;;;;;1999.90;999.90;;;;;;;;;;4964697;28;20046;-84
2023/12/31 07:36:18;;;;;;;1999.90;999.90;;;;;;;;;;4963663;28;20425;-84
2023/12/31 07:38:47;;;;;;;1999.90;999.90;;;;;;;;;;4956580;28;20046;-87
2023/12/31 07:41:13;;;;;;;1999.90;999.90;;;;;;;;;;4957915;28;20059;-84
2023/12/31 07:43:40;;;;;;;1999.90;999.90;;;;;;;;;;4962312;28;20051;-83
2023/12/31 07:46:07;;;;;;;1999.90;999.90;;;;;;;;;;4963530;28;20465;-84
2023/12/31 07:48:34;;;;;;;1999.90;999.90;;;;;;;;;;4964621;28;20047;-85
2023/12/31 07:51:03;;;;;;;1999.90;999.90;;;;;;;;;;4959658;28;20060;-85
2023/12/31 07:53:31;;;;;;;1999.90;999.90;;;;;;;;;;4961127;28;20052;-85
2023/12/31 07:55:58;;;;;;;1999.90;999.90;;;;;;;;;;4969964;28;20064;-85
2023/12/31 07:58:27;;;;;;;1999.90;999.90;;;;;;;;;;4974557;28;20133;-85
2023/12/31 08:00:54;;;;;;;1999.90;999.90;;;;;;;;;;4968284;28;20043;-86
2023/12/31 08:03:20;;;;;;;1999.90;999.90;;;;;;;;;;4955025;29;20047;-85
2023/12/31 08:05:47;;;;;;;1999.90;999.90;;;;;;;;;;4959360;28;20042;-84
2023/12/31 08:08:13;;;;;;;1999.90;999.90;;;;;;;;;;4974931;28;20102;-87
2023/12/31 08:10:41;;;;;;;1999.90;999.90;;;;;;;;;;4974057;28;20102;-85
2023/12/31 08:13:08;;;;;;;1999.90;999.90;;;;;;;;;;4965311;28;20058;-86
2023/12/31 08:15:35;;;;;;;1999.90;999.90;;;;;;;;;;4967469;28;20043;-86
2023/12/31 08:18:02;;;;;;;1999.90;999.90;;;;;;;;;;4959077;28;20517;-85
2023/12/31 08:20:41;;;;;;;1999.90;999.90;;;;;;;;;;4966457;28;20091;-85
2023/12/31 08:23:09;;;;;;;1999.90;999.90;;;;;;;;;;4972301;28;20472;-85
2023/12/31 08:25:35;;;;;;;1999.90;999.90;;;;;;;;;;4974543;28;20086;-84
2023/12/31 08:28:04;;;;;;;1999.90;999.90;;;;;;;;;;4966966;28;20129;-85
2023/12/31 08:30:31;;;;;;;1999.90;999.90;;;;;;;;;;4957235;28;20400;-88
2023/12/31 08:32:57;;;;;;;1999.90;999.90;;;;;;;;;;4966328;28;20497;-86
2023/12/31 08:35:26;;;;;;;1999.90;999.90;;;;;;;;;;4975692;28;20489;-85
2023/12/31 08:37:52;;;;;;;1999.90;999.90;;;;;;;;;;4966286;28;20102;-86
2023/12/31 08:40:19;;;;;;;1999.90;999.90;;;;;;;;;;4962978;28;20047;-85
2023/12/31 08:42:46;;;;;;;1999.90;999.90;;;;;;;;;;4966686;28;20051;-85
2023/12/31 08:45:14;;;;;;;1999.90;999.90;;;;;;;;;;4967198;28;20059;-86
2023/12/31 08:47:41;;;;;;;1999.90;999.90;;;;;;;;;;4972682;28;20051;-86
2023/12/31 08:50:20;;;;;;;1999.90;999.90;;;;;;;;;;4966737;28;20043;-86
2023/12/31 08:52:47;;;;;;;1999.90;999.90;;;;;;;;;;4972094;28;20085;-87
2023/12/31 08:55:14;;;;;;;1999.90;999.90;;;;;;;;;;4976681;28;20066;-86
2023/12/31 08:57:43;;;;;;;1999.90;999.90;;;;;;;;;;4970495;28;20047;-92
2023/12/31 09:00:11;;;;;;;1999.90;999.90;;;;;;;;;;4980453;28;20057;-85
2023/12/31 09:02:39;;;;;;;1999.90;999.90;;;;;;;;;;4977762;28;20046;-87
2023/12/31 09:05:06;;;;;;;1999.90;999.90;;;;;;;;;;4977578;28;20129;-86
2023/12/31 09:07:34;;;;;;;1999.90;999.90;;;;;;;;;;4977960;28;20055;-86
2023/12/31 09:10:01;;;;;;;1999.90;999.90;;;;;;;;;;4978391;28;20051;-87
2023/12/31 09:12:29;;;;;;;1999.90;999.90;;;;;;;;;;4976930;28;20161;-87
2023/12/31 09:14:55;;;;;;;1999.90;999.90;;;;;;;;;;4960013;28;20054;-87
2023/12/31 09:17:22;;;;;;;1999.90;999.90;;;;;;;;;;4959338;29;20130;-86
2023/12/31 09:23:12;;;;;;;1999.90;999.90;;;;;;;;;;4957669;28;20131;-88
2023/12/31 09:25:38;;;;;;;1999.90;999.90;;;;;;;;;;4966521;28;20042;-89
2023/12/31 09:28:06;;;;;;;1999.90;999.90;;;;;;;;;;4970287;28;20051;-88
2023/12/31 09:30:32;;;;;;;1999.90;999.90;;;;;;;;;;4958678;28;20428;-87
2023/12/31 09:32:59;;;;;;;1999.90;999.90;;;;;;;;;;4962189;29;20055;-87
2023/12/31 09:35:25;;;;;;;1999.90;999.90;;;;;;;;;;4955215;28;20050;-87
2023/12/31 09:37:52;;;;;;;1999.90;999.90;;;;;;;;;;4968308;28;20046;-88
2023/12/31 09:40:20;;;;;;;1999.90;999.90;;;;;;;;;;4967287;28;20054;-88
2023/12/31 09:42:48;;;;;;;1999.90;999.90;;;;;;;;;;4965913;28;20054;-88
2023/12/31 09:45:16;;;;;;;1999.90;999.90;;;;;;;;;;4973311;28;20051;-88
2023/12/31 09:47:44;;;;;;;1999.90;999.90;;;;;;;;;;4965992;28;20057;-87
2023/12/31 09:50:13;;;;;;;1999.90;999.90;;;;;;;;;;4971265;28;20051;-88
2023/12/31 09:52:40;;;;;;;1999.90;999.90;;;;;;;;;;4965794;28;20483;-89
2023/12/31 09:55:08;;;;;;;1999.90;999.90;;;;;;;;;;4967628;28;20054;-90
2023/12/31 09:57:36;;;;;;;1999.90;999.90;;;;;;;;;;4968383;28;20050;-92
2023/12/31 10:00:08;;;;;;;1999.90;999.90;;;;;;;;;;4970877;28;20340;-88
2023/12/31 10:02:34;;;;;;;1999.90;999.90;;;;;;;;;;4959316;28;20047;-90
2023/12/31 10:05:01;;;;;;;1999.90;999.90;;;;;;;;;;4957496;28;20405;-91
2023/12/31 10:07:28;;;;;;;1999.90;999.90;;;;;;;;;;4977349;28;20080;-92
2023/12/31 10:09:56;;;;;;;1999.90;999.90;;;;;;;;;;4968925;28;20106;-91
2023/12/31 10:12:27;;;;;;;1999.90;999.90;;;;;;;;;;4981716;28;20047;-92
2023/12/31 10:17:49;;;;;;;1999.90;999.90;;;;;;;;;;4972910;28;20055;-90
2023/12/31 10:20:16;;;;;;;1999.90;999.90;;;;;;;;;;4950797;28;20051;-90
2023/12/31 10:22:42;;;;;;;1999.90;999.90;;;;;;;;;;4968284;28;20062;-91
2023/12/31 10:25:13;;;;;;;1999.90;999.90;;;;;;;;;;4977829;28;20053;-92
2023/12/31 10:27:40;;;;;;;1999.90;999.90;;;;;;;;;;4974087;28;20546;-91
2023/12/31 10:30:11;;;;;;;1999.90;999.90;;;;;;;;;;4973528;28;20051;-91
2023/12/31 10:32:45;;;;;;;1999.90;999.90;;;;;;;;;;4958232;28;20078;-90
2023/12/31 10:35:11;;;;;;;1999.90;999.90;;;;;;;;;;4950557;28;20055;-90
2023/12/31 10:37:37;;;;;;;1999.90;999.90;;;;;;;;;;4971788;28;20073;-91
2023/12/31 10:40:19;;;;;;;1999.90;999.90;;;;;;;;;;4976139;28;20114;-91
2023/12/31 10:42:48;;;;;;;1999.90;999.90;;;;;;;;;;4969634;28;20102;-93
2023/12/31 10:45:18;;;;;;;1999.90;999.90;;;;;;;;;;4964477;28;20043;-92
2023/12/31 10:47:45;;;;;;;1999.90;999.90;;;;;;;;;;4969168;28;20130;-92
2023/12/31 10:50:16;;;;;;;1999.90;999.90;;;;;;;;;;4966406;28;20050;-93
2023/12/31 10:52:42;;;;;;;1999.90;999.90;;;;;;;;;;4968583;28;20426;-92
2023/12/31 10:55:13;;;;;;;1999.90;999.90;;;;;;;;;;4951180;29;20089;-92
2023/12/31 10:57:40;;;;;;;1999.90;999.90;;;;;;;;;;4964821;28;20074;-92
2023/12/31 11:00:09;;;;;;;1999.90;999.90;;;;;;;;;;4952457;28;20057;-91
2023/12/31 11:02:37;;;;;;;1999.90;999.90;;;;;;;;;;4966603;28;20413;-91
2023/12/31 11:05:04;;;;;;;1999.90;999.90;;;;;;;;;;4951964;28;20062;-92
2023/12/31 11:07:31;;;;;;;1999.90;999.90;;;;;;;;;;4969481;28;20085;-93
2023/12/31 11:09:58;;;;;;;1999.90;999.90;;;;;;;;;;4954944;29;20063;-93
2023/12/31 11:12:25;;;;;;;1999.90;999.90;;;;;;;;;;4971667;28;20102;-92
2023/12/31 11:14:55;;;;;;;1999.90;999.90;;;;;;;;;;4953073;28;20053;-92
2023/12/31 11:17:45;;;;;;;1999.90;999.90;;;;;;;;;;4971076;28;20057;-91
2023/12/31 11:20:36;;;;;;;1999.90;999.90;;;;;;;;;;4958937;28;20055;-91
2023/12/31 11:23:13;;;;;;;1999.90;999.90;;;;;;;;;;4952259;28;20050;-92
2023/12/31 11:25:45;;;;;;;1999.90;999.90;;;;;;;;;;4955265;28;20058;-91
2023/12/31 11:28:11;;;;;;;1999.90;999.90;;;;;;;;;;4965599;28;20404;-90
2023/12/31 11:30:46;;;;;;;1999.90;999.90;;;;;;;;;;4961839;28;20074;-90
2023/12/31 11:33:16;;;;;;;1999.90;999.90;;;;;;;;;;4959458;28;20131;-90
2023/12/31 11:35:43;;;;;;;1999.90;999.90;;;;;;;;;;4944794;29;20673;-89
2023/12/31 11:38:10;;;;;;;1999.90;999.90;;;;;;;;;;4968503;28;20055;-91
2023/12/31 11:40:37;;;;;;;1999.90;999.90;;;;;;;;;;4944106;28;20051;-90
2023/12/31 11:43:11;;;;;;;1999.90;999.90;;;;;;;;;;4966568;28;20113;-89
2023/12/31 11:45:42;;;;;;;1999.90;999.90;;;;;;;;;;4949762;28;20055;-90
2023/12/31 11:48:28;;;;;;;1999.90;999.90;;;;;;;;;;4959558;28;20062;-91
2023/12/31 11:50:58;;;;;;;1999.90;999.90;;;;;;;;;;4960355;28;20134;-90
2023/12/31 11:53:26;;;;;;;1999.90;999.90;;;;;;;;;;4965979;28;20078;-90
2023/12/31 11:55:58;;;;;;;1999.90;999.90;;;;;;;;;;4957202;28;20047;-89
2023/12/31 11:58:27;;;;;;;1999.90;999.90;;;;;;;;;;4964462;28;20058;-90
2023/12/31 12:00:54;;;;;;;1999.90;999.90;;;;;;;;;;4970600;28;20466;-90
2023/12/31 12:03:21;;;;;;;1999.90;999.90;;;;;;;;;;4959511;28;20150;-90
2023/12/31 12:05:51;;;;;;;1999.90;999.90;;;;;;;;;;4967193;28;20058;-90
2023/12/31 12:08:17;;;;;;;1999.90;999.90;;;;;;;;;;4945321;28;20051;-88
2023/12/31 12:10:45;;;;;;;1999.90;999.90;;;;;;;;;;4968511;28;20043;-88
2023/12/31 12:13:11;;;;;;;1999.90;999.90;;;;;;;;;;4976420;28;20058;-90
2023/12/31 12:15:38;;;;;;;1999.90;999.90;;;;;;;;;;4965410;28;20063;-90
2023/12/31 12:18:18;;;;;;;1999.90;999.90;;;;;;;;;;4967021;28;20135;-89
2023/12/31 12:20:45;;;;;;;1999.90;999.90;;;;;;;;;;4963735;28;20172;-89
2023/12/31 12:23:14;;;;;;;1999.90;999.90;;;;;;;;;;4967428;28;20154;-91
2023/12/31 12:25:42;;;;;;;1999.90;999.90;;;;;;;;;;4970838;28;20205;-89
2023/12/31 12:28:11;;;;;;;1999.90;999.90;;;;;;;;;;4967187;28;20046;-89
2023/12/31 12:30:40;;;;;;;1999.90;999.90;;;;;;;;;;4951747;28;20054;-89
2023/12/31 12:33:07;;;;;;;1999.90;999.90;;;;;;;;;;4968649;28;20046;-89
2023/12/31 12:35:36;;;;;;;1999.90;999.90;;;;;;;;;;4940269;29;20102;-89
2023/12/31 12:38:03;;;;;;;1999.90;999.90;;;;;;;;;;4947747;29;20055;-89
2023/12/31 12:40:31;;;;;;;1999.90;999.90;;;;;;;;;;4971127;28;20049;-91
2023/12/31 12:42:59;;;;;;;1999.90;999.90;;;;;;;;;;4948873;29;20051;-89
2023/12/31 12:45:26;;;;;;;1999.90;999.90;;;;;;;;;;4965946;28;20220;-89
2023/12/31 12:47:53;;;;;;;1999.90;999.90;;;;;;;;;;4969195;28;20047;-89
2023/12/31 12:50:29;;;;;;;1999.90;999.90;;;;;;;;;;4965018;28;20098;-90
2023/12/31 12:52:56;;;;;;;;;;;;;;;;;;4960757;28;20082;-90
2023/12/31 12:55:22;;;;;;;1999.90;999.90;;;;;;;;;;4970470;28;20056;-91
2023/12/31 12:57:50;;;;;;;1999.90;999.90;;;;;;;;;;4960771;28;20138;-91
2023/12/31 13:00:18;;;;;;;1999.90;999.90;;;;;;;;;;4966988;28;20146;-88
2023/12/31 13:02:44;;;;;;;1999.90;999.90;;;;;;;;;;4964588;28;20047;-89
2023/12/31 13:05:11;;;;;;;1999.90;999.90;;;;;;;;;;4950146;28;20059;-89
2023/12/31 13:07:37;;;;;;;1999.90;999.90;;;;;;;;;;4967053;28;20133;-89
2023/12/31 13:10:05;;;;;;;1999.90;999.90;;;;;;;;;;4966221;28;20050;-88
2023/12/31 13:12:31;;;;;;;1999.90;999.90;;;;;;;;;;4965040;28;20054;-89
2023/12/31 13:15:00;;;;;;;1999.90;999.90;;;;;;;;;;4963737;28;20086;-89
2023/12/31 13:17:28;;;;;;;1999.90;999.90;;;;;;;;;;4935505;28;20055;-90
2023/12/31 13:19:54;;;;;;;1999.90;999.90;;;;;;;;;;4966571;28;20051;-89
2023/12/31 13:22:21;;;;;;;1999.90;999.90;;;;;;;;;;4964982;28;20053;-89
2023/12/31 13:24:48;;;;;;;1999.90;999.90;;;;;;;;;;4966897;28;20436;-90
2023/12/31 13:27:15;;;;;;;1999.90;999.90;;;;;;;;;;4968173;28;20058;-88
2023/12/31 13:29:41;;;;;;;1999.90;999.90;;;;;;;;;;4970645;28;20043;-90
2023/12/31 13:32:11;;;;;;;1999.90;999.90;;;;;;;;;;4968487;28;20582;-87
2023/12/31 13:34:38;;;;;;;1999.90;999.90;;;;;;;;;;4967757;28;20115;-89
2023/12/31 13:37:04;;;;;;;1999.90;999.90;;;;;;;;;;4979427;28;20047;-92
2023/12/31 13:39:31;;;;;;;1999.90;999.90;;;;;;;;;;4983951;28;20075;-91
2023/12/31 13:41:58;;;;;;;1999.90;999.90;;;;;;;;;;4980590;28;20062;-89
2023/12/31 13:44:27;;;;;;;1999.90;999.90;;;;;;;;;;4973052;28;20150;-88
2023/12/31 13:46:56;;;;;;;1999.90;999.90;;;;;;;;;;4968264;28;20055;-89
2023/12/31 13:49:25;;;;;;;1999.90;999.90;;;;;;;;;;4957824;29;20062;-89
2023/12/31 13:51:51;;;;;;;1999.90;999.90;;;;;;;;;;4968403;28;20406;-89